createdAt,value
2022-07-26T00:01:21.896Z,99752.94
2022-07-26T00:03:48.294Z,99755.72
2022-07-26T00:06:14.593Z,99759.84
2022-07-26T00:08:40.908Z,99760.38
2022-07-26T00:11:07.512Z,99770.69
2022-07-26T00:13:33.951Z,99777.34
2022-07-26T00:16:00.270Z,99780.31
2022-07-26T00:18:26.589Z,99784.41
2022-07-26T00:20:52.890Z,99801.94
2022-07-26T00:23:21.814Z,99791.69
2022-07-26T00:25:48.120Z,99798.91
2022-07-26T00:28:14.428Z,99795.97
2022-07-26T00:30:40.731Z,99803.09
2022-07-26T00:33:07.043Z,99805.59
2022-07-26T00:35:34.719Z,99812.44
2022-07-26T00:38:01.021Z,99819.72
2022-07-26T00:40:27.350Z,99826.22
2022-07-26T00:42:53.659Z,99823.28
2022-07-26T00:45:19.954Z,99806.94
2022-07-26T00:47:46.243Z,99807.97
2022-07-26T00:50:12.651Z,99818.72
2022-07-26T00:52:38.951Z,99833.13
2022-07-26T00:55:06.472Z,99849.59
2022-07-26T00:57:32.781Z,99846.41
2022-07-26T01:00:01.134Z,99849.41
2022-07-26T01:02:27.511Z,99844.16
2022-07-26T01:04:53.857Z,99847.66
2022-07-26T01:07:20.152Z,99863.34
2022-07-26T01:09:46.471Z,99861.38
2022-07-26T01:12:12.811Z,99872.25
2022-07-26T01:14:39.143Z,99867.25
2022-07-26T01:17:05.459Z,99879.41
2022-07-26T01:19:31.922Z,99886.75
2022-07-26T01:21:58.261Z,99891.25
2022-07-26T01:24:24.564Z,99867.47
2022-07-26T01:26:50.872Z,99881.78
2022-07-26T01:29:17.164Z,99884.88
2022-07-26T01:31:43.590Z,99890.06
2022-07-26T01:34:10.251Z,99886.16
2022-07-26T01:36:36.713Z,99891.72
2022-07-26T01:39:06.068Z,99891.59
2022-07-26T01:41:37.925Z,99892.22
2022-07-26T01:44:05.158Z,99892.09
2022-07-26T01:46:31.638Z,99886.53
2022-07-26T01:48:57.950Z,99886.66
2022-07-26T01:51:24.312Z,99871.88
2022-07-26T01:53:50.599Z,99864.13
2022-07-26T01:56:16.900Z,99870.09
2022-07-26T01:58:43.200Z,99867.41
2022-07-26T02:01:09.526Z,99870.06
2022-07-26T02:03:35.852Z,99860.78
2022-07-26T02:06:02.177Z,99862.66
2022-07-26T02:08:28.469Z,99867.41
2022-07-26T02:11:03.263Z,99861.81
2022-07-26T02:13:30.248Z,99871.59
2022-07-26T02:15:58.798Z,99874.38
2022-07-26T02:18:25.371Z,99875.53
2022-07-26T02:20:51.680Z,99878.50
2022-07-26T02:23:17.990Z,99876.88
2022-07-26T02:25:44.290Z,99883.44
2022-07-26T02:28:10.642Z,99885.56
2022-07-26T02:30:36.953Z,99885.84
2022-07-26T02:33:05.721Z,99882.34
2022-07-26T02:35:32.049Z,99884.41
2022-07-26T02:37:58.349Z,99879.72
2022-07-26T02:40:24.639Z,99874.84
2022-07-26T02:42:50.941Z,99883.25
2022-07-26T02:45:17.237Z,99892.31
2022-07-26T02:47:43.579Z,99888.63
2022-07-26T02:50:09.912Z,99887.75
2022-07-26T02:52:36.202Z,99883.56
2022-07-26T02:55:02.512Z,99884.06
2022-07-26T02:57:28.828Z,99886.63
2022-07-26T03:00:11.853Z,99891.31
2022-07-26T03:02:38.309Z,99903.03
2022-07-26T03:05:04.608Z,99907.56
2022-07-26T03:07:31.029Z,99910.56
2022-07-26T03:09:57.357Z,99913.06
2022-07-26T03:12:23.651Z,99918.75
2022-07-26T03:14:49.956Z,99923.84
2022-07-26T03:17:16.253Z,99922.47
2022-07-26T03:19:42.547Z,99913.06
2022-07-26T03:22:08.853Z,99921.75
2022-07-26T03:24:35.279Z,99920.31
2022-07-26T03:27:01.574Z,99914.97
2022-07-26T03:29:27.892Z,99912.25
2022-07-26T03:31:54.196Z,99915.25
2022-07-26T03:34:20.496Z,99915.75
2022-07-26T03:36:46.810Z,99904.75
2022-07-26T03:39:13.106Z,99908.91
2022-07-26T03:41:39.418Z,99901.28
2022-07-26T03:44:06.049Z,99905.34
2022-07-26T03:46:32.571Z,99909.75
2022-07-26T03:48:58.988Z,99909.72
2022-07-26T03:51:25.318Z,99903.44
2022-07-26T03:53:51.683Z,99910.94
2022-07-26T03:56:33.329Z,99904.13
2022-07-26T03:58:59.747Z,99905.09
2022-07-26T04:01:26.092Z,99907.72
2022-07-26T04:03:52.493Z,99908.03
2022-07-26T04:06:18.797Z,99913.00
2022-07-26T04:08:49.520Z,99917.03
2022-07-26T04:11:15.805Z,99916.09
2022-07-26T04:13:42.109Z,99908.44
2022-07-26T04:16:08.407Z,99918.06
2022-07-26T04:18:34.758Z,99925.44
2022-07-26T04:21:01.062Z,99931.16
2022-07-26T04:23:27.391Z,99923.66
2022-07-26T04:25:53.731Z,99926.50
2022-07-26T04:28:20.039Z,99924.69
2022-07-26T04:30:46.384Z,99935.66
2022-07-26T04:33:12.738Z,99929.78
2022-07-26T04:35:39.058Z,99934.53
2022-07-26T04:38:05.369Z,99933.81
2022-07-26T04:40:34.542Z,99936.44
2022-07-26T04:43:06.938Z,99932.78
2022-07-26T04:45:36.373Z,99930.38
2022-07-26T04:48:02.878Z,99940.34
2022-07-26T04:50:29.182Z,99943.28
2022-07-26T04:52:55.507Z,99947.28
2022-07-26T04:55:21.850Z,99947.09
2022-07-26T04:57:48.152Z,99943.09
2022-07-26T05:00:21.995Z,99950.00
2022-07-26T05:02:49.597Z,99944.06
2022-07-26T05:05:15.943Z,99946.06
2022-07-26T05:07:42.229Z,99946.38
2022-07-26T05:10:08.524Z,99944.94
2022-07-26T05:12:34.836Z,99940.09
2022-07-26T05:15:01.149Z,99942.09
2022-07-26T05:17:30.874Z,99951.38
2022-07-26T05:20:01.312Z,99958.91
2022-07-26T05:22:29.384Z,99956.66
2022-07-26T05:24:55.697Z,99957.13
2022-07-26T05:27:22.044Z,99950.81
2022-07-26T05:29:48.370Z,99953.31
2022-07-26T05:32:14.669Z,99948.63
2022-07-26T05:34:40.955Z,99953.81
2022-07-26T05:37:07.236Z,99954.16
2022-07-26T05:39:33.537Z,99960.03
2022-07-26T05:42:14.913Z,99961.34
2022-07-26T05:44:42.660Z,99964.69
2022-07-26T05:47:09.187Z,99971.94
2022-07-26T05:49:40.523Z,99962.91
2022-07-26T05:52:07.134Z,99974.09
2022-07-26T05:54:33.448Z,99972.91
2022-07-26T05:56:59.752Z,99968.59
2022-07-26T05:59:26.104Z,99969.34
2022-07-26T06:01:56.166Z,99982.84
2022-07-26T06:04:23.149Z,99975.31
2022-07-26T06:06:52.830Z,99973.50
2022-07-26T06:09:19.469Z,99971.47
2022-07-26T06:11:46.323Z,99974.63
2022-07-26T06:14:12.861Z,99982.97
2022-07-26T06:16:39.488Z,99971.16
2022-07-26T06:19:06.589Z,99982.59
2022-07-26T06:21:32.866Z,99987.13
2022-07-26T06:23:59.169Z,99987.22
2022-07-26T06:26:25.454Z,99994.66
2022-07-26T06:28:51.749Z,99989.09
2022-07-26T06:31:18.088Z,99988.16
2022-07-26T06:33:44.395Z,99998.06
2022-07-26T06:36:10.685Z,99995.03
2022-07-26T06:38:36.986Z,99995.31
2022-07-26T06:41:03.276Z,99995.81
2022-07-26T06:43:29.589Z,99998.78
2022-07-26T06:45:55.948Z,99995.44
2022-07-26T06:48:22.307Z,100008.59
2022-07-26T06:50:49.161Z,99999.72
2022-07-26T06:53:15.469Z,100000.31
2022-07-26T06:55:41.770Z,99995.75
2022-07-26T06:58:09.009Z,99994.00
2022-07-26T07:00:35.311Z,99992.16
2022-07-26T07:03:01.614Z,99993.25
2022-07-26T07:05:27.940Z,99999.94
2022-07-26T07:07:57.552Z,99994.28
2022-07-26T07:10:24.680Z,100002.94
2022-07-26T07:12:51.203Z,100000.53
2022-07-26T07:15:17.501Z,100009.41
2022-07-26T07:17:43.973Z,100001.25
2022-07-26T07:20:10.305Z,100011.03
2022-07-26T07:22:36.605Z,99998.72
2022-07-26T07:25:03.130Z,100002.31
2022-07-26T07:27:32.486Z,100006.59
2022-07-26T07:29:59.653Z,100007.19
2022-07-26T07:32:26.038Z,100012.94
2022-07-26T07:34:52.716Z,100009.19
2022-07-26T07:37:20.105Z,100014.38
2022-07-26T07:39:48.766Z,100012.44
2022-07-26T07:42:16.841Z,100016.84
2022-07-26T07:44:43.434Z,100009.16
2022-07-26T07:47:09.814Z,100000.66
2022-07-26T07:49:36.139Z,100001.78
2022-07-26T07:52:02.440Z,100006.88
2022-07-26T07:54:29.193Z,99993.13
2022-07-26T07:56:56.341Z,99999.91
2022-07-26T07:59:22.927Z,100004.13
2022-07-26T08:01:49.283Z,99995.03
2022-07-26T08:04:15.741Z,100000.97
2022-07-26T08:06:42.087Z,99994.63
2022-07-26T08:09:16.656Z,99996.63
2022-07-26T08:11:42.950Z,99994.63
2022-07-26T08:14:09.285Z,99992.28
2022-07-26T08:16:35.807Z,100008.13
2022-07-26T08:19:02.140Z,100011.72
2022-07-26T08:21:29.271Z,100008.34
2022-07-26T08:23:55.657Z,100010.28
2022-07-26T08:26:21.969Z,100008.38
2022-07-26T08:28:48.733Z,100009.19
2022-07-26T08:31:24.855Z,100004.34
2022-07-26T08:33:51.200Z,100007.91
2022-07-26T08:36:17.502Z,100020.56
2022-07-26T08:38:44.135Z,100017.38
2022-07-26T08:41:10.436Z,100019.13
2022-07-26T08:43:51.212Z,100023.31
2022-07-26T08:46:24.459Z,100026.34
2022-07-26T08:48:52.093Z,100026.25
2022-07-26T08:51:18.444Z,100024.22
2022-07-26T08:53:44.735Z,100023.84
2022-07-26T08:56:11.061Z,100026.44
2022-07-26T08:58:37.410Z,100031.72
2022-07-26T09:01:03.773Z,100030.91
2022-07-26T09:03:33.318Z,100029.56
2022-07-26T09:06:00.633Z,100031.09
2022-07-26T09:08:26.967Z,100030.72
2022-07-26T09:10:53.263Z,100034.91
2022-07-26T09:13:20.225Z,100036.63
2022-07-26T09:15:46.576Z,100038.34
2022-07-26T09:18:12.945Z,100041.28
2022-07-26T09:20:39.283Z,100035.19
2022-07-26T09:23:07.500Z,100019.69
2022-07-26T09:25:33.778Z,100023.56
2022-07-26T09:28:00.357Z,100028.19
2022-07-26T09:30:26.660Z,100022.63
2022-07-26T09:32:55.549Z,100028.13
2022-07-26T09:35:49.683Z,100019.09
2022-07-26T09:38:11.347Z,100025.59
2022-07-26T09:40:37.820Z,100027.72
2022-07-26T09:43:04.129Z,100023.81
2022-07-26T09:45:30.459Z,100030.31
2022-07-26T09:47:56.758Z,100027.34
2022-07-26T09:50:23.130Z,100031.06
2022-07-26T09:52:49.488Z,100037.84
2022-07-26T09:55:18.481Z,100026.09
2022-07-26T09:57:44.767Z,100027.25
2022-07-26T10:00:12.339Z,100022.38
2022-07-26T10:02:38.611Z,100022.34
2022-07-26T10:05:04.958Z,100016.16
2022-07-26T10:07:31.257Z,100015.34
2022-07-26T10:09:57.597Z,100015.22
2022-07-26T10:12:27.224Z,100011.69
2022-07-26T10:14:57.212Z,100003.53
2022-07-26T10:17:28.874Z,100009.63
2022-07-26T10:19:55.616Z,100008.00
2022-07-26T10:22:22.289Z,100015.84
2022-07-26T10:24:48.587Z,100015.63
2022-07-26T10:27:14.930Z,100013.69
2022-07-26T10:29:41.235Z,100008.91
2022-07-26T10:32:07.515Z,100014.06
2022-07-26T10:34:33.829Z,100004.31
2022-07-26T10:37:00.148Z,100006.34
2022-07-26T10:39:26.467Z,100015.38
2022-07-26T10:41:52.772Z,100016.59
2022-07-26T10:44:19.086Z,100013.25
2022-07-26T10:46:45.456Z,100017.53
2022-07-26T10:49:14.500Z,100010.88
2022-07-26T10:51:40.841Z,100008.59
2022-07-26T10:54:07.237Z,100010.00
2022-07-26T10:56:34.313Z,100009.59
2022-07-26T10:59:00.738Z,100014.94
2022-07-26T11:01:27.065Z,100008.63
2022-07-26T11:03:53.377Z,100013.63
2022-07-26T11:06:19.678Z,100022.84
2022-07-26T11:08:48.152Z,100014.06
2022-07-26T11:11:14.809Z,100023.47
2022-07-26T11:13:41.131Z,100024.91
2022-07-26T11:16:07.501Z,100019.59
2022-07-26T11:18:35.351Z,100010.66
2022-07-26T11:21:01.648Z,100012.13
2022-07-26T11:23:27.989Z,100024.72
2022-07-26T11:25:56.997Z,100012.53
2022-07-26T11:28:26.604Z,100017.06
2022-07-26T11:30:52.977Z,100005.84
2022-07-26T11:33:19.854Z,100006.34
2022-07-26T11:35:46.165Z,100011.09
2022-07-26T11:38:12.677Z,100008.00
2022-07-26T11:40:38.985Z,100026.16
2022-07-26T11:43:05.285Z,100014.03
2022-07-26T11:45:31.592Z,100009.69
2022-07-26T11:47:58.240Z,100009.91
2022-07-26T11:50:24.576Z,100023.81
2022-07-26T11:52:51.779Z,100004.94
2022-07-26T11:55:18.088Z,100006.06
2022-07-26T11:57:44.493Z,100012.19
2022-07-26T12:00:10.814Z,100015.41
2022-07-26T12:02:37.106Z,100015.56
2022-07-26T12:05:03.499Z,100026.53
2022-07-26T12:07:29.905Z,100011.69
2022-07-26T12:09:58.461Z,100011.44
2022-07-26T12:12:27.451Z,100009.72
2022-07-26T12:14:54.020Z,99998.69
2022-07-26T12:17:20.815Z,100005.53
2022-07-26T12:19:47.040Z,100014.03
2022-07-26T12:22:13.482Z,100015.34
2022-07-26T12:24:39.885Z,100008.31
2022-07-26T12:27:06.298Z,100006.94
2022-07-26T12:29:36.276Z,100012.81
2022-07-26T12:32:02.869Z,100009.41
2022-07-26T12:34:29.160Z,100001.50
2022-07-26T12:36:55.490Z,100005.56
2022-07-26T12:39:21.827Z,99996.06
2022-07-26T12:41:50.432Z,100001.06
2022-07-26T12:44:17.145Z,99993.28
2022-07-26T12:46:47.249Z,99979.56
2022-07-26T12:49:13.710Z,99983.78
2022-07-26T12:51:40.159Z,99987.00
2022-07-26T12:54:06.524Z,99997.44
2022-07-26T12:56:33.830Z,99992.88
2022-07-26T12:59:03.391Z,99989.41
2022-07-26T13:01:29.808Z,99996.47
2022-07-26T13:03:56.212Z,99992.19
2022-07-26T13:06:22.528Z,99998.78
2022-07-26T13:08:48.966Z,99993.84
2022-07-26T13:11:15.278Z,99982.56
2022-07-26T13:13:41.835Z,99990.59
2022-07-26T13:16:11.780Z,99996.13
2022-07-26T13:18:38.684Z,99994.00
2022-07-26T13:21:05.220Z,99996.81
2022-07-26T13:23:32.085Z,100006.47
2022-07-26T13:26:01.407Z,100007.84
2022-07-26T13:28:29.757Z,100004.09
2022-07-26T13:30:56.105Z,100007.28
2022-07-26T13:33:22.682Z,100006.38
2022-07-26T13:35:50.131Z,100010.88
2022-07-26T13:38:19.148Z,100022.59
2022-07-26T13:40:45.465Z,100025.75
2022-07-26T13:43:11.754Z,100016.13
2022-07-26T13:45:38.135Z,100015.97
2022-07-26T13:48:04.526Z,100022.41
2022-07-26T13:50:30.845Z,100014.84
2022-07-26T13:52:57.277Z,100027.59
2022-07-26T13:55:23.916Z,100022.72
2022-07-26T13:57:56.950Z,100025.50
2022-07-26T14:00:24.135Z,100039.75
2022-07-26T14:02:50.528Z,100041.25
2022-07-26T14:05:17.231Z,100047.28
2022-07-26T14:07:43.592Z,100039.75
2022-07-26T14:10:09.949Z,100028.53
2022-07-26T14:12:37.974Z,100032.34
2022-07-26T14:15:09.328Z,100027.81
2022-07-26T14:17:38.492Z,100022.59
2022-07-26T14:20:04.840Z,100024.09
2022-07-26T14:22:31.168Z,100031.63
2022-07-26T14:24:57.467Z,100021.09
2022-07-26T14:27:23.767Z,100031.66
2022-07-26T14:29:50.077Z,100025.63
2022-07-26T14:32:21.365Z,100026.91
2022-07-26T14:34:48.253Z,100029.00
2022-07-26T14:37:43.230Z,100021.50
2022-07-26T14:40:00.834Z,100023.56
2022-07-26T14:42:27.140Z,100025.13
2022-07-26T14:44:53.440Z,100028.00
2022-07-26T14:47:19.738Z,100042.16
2022-07-26T14:49:46.119Z,100039.13
2022-07-26T14:52:12.474Z,100032.22
2022-07-26T14:54:38.764Z,100031.88
2022-07-26T14:57:05.064Z,100038.66
2022-07-26T14:59:31.670Z,100041.22
2022-07-26T15:02:00.375Z,100039.38
2022-07-26T15:04:30.169Z,100038.13
2022-07-26T15:06:56.459Z,100051.09
2022-07-26T15:09:22.760Z,100039.50
2022-07-26T15:11:49.732Z,100039.97
2022-07-26T15:14:16.063Z,100042.88
2022-07-26T15:16:42.478Z,100049.81
2022-07-26T15:19:08.926Z,100054.72
2022-07-26T15:21:35.211Z,100042.13
2022-07-26T15:24:01.486Z,100050.03
2022-07-26T15:26:27.845Z,100050.72
2022-07-26T15:28:54.151Z,100049.84
2022-07-26T15:31:20.476Z,100057.31
2022-07-26T15:33:46.793Z,100049.06
2022-07-26T15:36:13.094Z,100054.34
2022-07-26T15:38:44.476Z,100053.66
2022-07-26T15:41:10.769Z,100051.09
2022-07-26T15:43:43.878Z,100056.28
2022-07-26T15:46:14.927Z,100046.31
2022-07-26T15:48:42.284Z,100065.50
2022-07-26T15:51:08.620Z,100059.72
2022-07-26T15:53:35.545Z,100069.91
2022-07-26T15:56:02.787Z,100067.88
2022-07-26T15:58:29.902Z,100056.47
2022-07-26T16:00:56.407Z,100069.13
2022-07-26T16:03:22.726Z,100076.34
2022-07-26T16:05:49.053Z,100064.34
2022-07-26T16:08:15.384Z,100064.53
2022-07-26T16:10:41.713Z,100066.47
2022-07-26T16:13:08.026Z,100071.72
2022-07-26T16:15:34.338Z,100087.13
2022-07-26T16:18:05.851Z,100078.44
2022-07-26T16:20:32.698Z,100082.84
2022-07-26T16:22:59.080Z,100083.91
2022-07-26T16:25:25.386Z,100083.75
2022-07-26T16:27:53.217Z,100089.63
2022-07-26T16:30:19.538Z,100087.75
2022-07-26T16:32:45.827Z,100087.91
2022-07-26T16:35:12.134Z,100096.81
2022-07-26T16:37:38.418Z,100092.69
2022-07-26T16:40:04.729Z,100097.72
2022-07-26T16:42:31.062Z,100100.50
2022-07-26T16:44:57.359Z,100102.59
2022-07-26T16:47:23.653Z,100098.06
2022-07-26T16:49:50.041Z,100103.81
2022-07-26T16:52:16.490Z,100100.00
2022-07-26T16:54:42.813Z,100104.00
2022-07-26T16:57:09.102Z,100102.59
2022-07-26T16:59:35.409Z,100105.84
2022-07-26T17:02:03.029Z,100103.97
2022-07-26T17:04:29.583Z,100103.44
2022-07-26T17:07:22.381Z,100102.28
2022-07-26T17:09:42.283Z,100103.31
2022-07-26T17:12:08.584Z,100097.47
2022-07-26T17:14:34.873Z,100107.16
2022-07-26T17:17:01.174Z,100112.91
2022-07-26T17:19:27.719Z,100117.66
2022-07-26T17:21:54.070Z,100124.06
2022-07-26T17:24:20.370Z,100133.28
2022-07-26T17:26:47.137Z,100117.66
2022-07-26T17:29:13.799Z,100115.34
2022-07-26T17:31:40.235Z,100124.19
2022-07-26T17:34:06.754Z,100133.69
2022-07-26T17:36:33.061Z,100133.31
2022-07-26T17:39:02.669Z,100132.41
2022-07-26T17:41:32.634Z,100133.13
2022-07-26T17:43:59.519Z,100131.22
2022-07-26T17:46:25.911Z,100128.13
2022-07-26T17:48:52.309Z,100130.00
2022-07-26T17:51:18.936Z,100138.06
2022-07-26T17:53:49.779Z,100126.47
2022-07-26T17:56:19.361Z,100141.94
2022-07-26T17:58:45.662Z,100130.34
2022-07-26T18:01:12.087Z,100134.66
2022-07-26T18:03:38.428Z,100137.75
2022-07-26T18:06:06.462Z,100140.72
2022-07-26T18:08:32.961Z,100137.66
2022-07-26T18:10:59.281Z,100142.78
2022-07-26T18:13:26.269Z,100136.31
2022-07-26T18:15:52.643Z,100138.66
2022-07-26T18:18:18.975Z,100142.31
2022-07-26T18:20:45.285Z,100136.78
2022-07-26T18:23:11.607Z,100141.25
2022-07-26T18:25:37.917Z,100137.22
2022-07-26T18:28:07.033Z,100134.69
2022-07-26T18:30:33.662Z,100141.16
2022-07-26T18:33:00.124Z,100141.41
2022-07-26T18:35:26.462Z,100139.13
2022-07-26T18:37:52.982Z,100145.09
2022-07-26T18:40:19.599Z,100143.78
2022-07-26T18:42:45.938Z,100131.38
2022-07-26T18:45:12.247Z,100138.59
2022-07-26T18:47:38.536Z,100150.34
2022-07-26T18:50:04.827Z,100148.63
2022-07-26T18:52:32.675Z,100155.28
2022-07-26T18:54:59.422Z,100153.63
2022-07-26T18:57:25.718Z,100155.44
2022-07-26T18:59:52.037Z,100159.50
2022-07-26T19:02:18.345Z,100156.09
2022-07-26T19:04:44.645Z,100159.91
2022-07-26T19:07:10.944Z,100157.09
2022-07-26T19:09:37.268Z,100162.94
2022-07-26T19:12:03.580Z,100166.81
2022-07-26T19:14:29.924Z,100167.63
2022-07-26T19:16:56.224Z,100167.47
2022-07-26T19:19:22.514Z,100167.31
2022-07-26T19:21:49.281Z,100166.63
2022-07-26T19:24:15.857Z,100172.59
2022-07-26T19:26:42.176Z,100168.03
2022-07-26T19:29:08.709Z,100181.50
2022-07-26T19:31:35.227Z,100184.38
2022-07-26T19:34:03.080Z,100195.81
2022-07-26T19:36:29.394Z,100195.31
2022-07-26T19:38:57.382Z,100192.75
2022-07-26T19:41:23.717Z,100194.59
2022-07-26T19:43:50.010Z,100195.88
2022-07-26T19:46:16.371Z,100199.03
2022-07-26T19:48:42.778Z,100195.88
2022-07-26T19:51:09.196Z,100197.03
2022-07-26T19:53:35.503Z,100204.00
2022-07-26T19:56:01.804Z,100212.03
2022-07-26T19:58:29.929Z,100210.50
2022-07-26T20:00:56.272Z,100198.22
2022-07-26T20:03:22.572Z,100207.03
2022-07-26T20:05:48.870Z,100212.78
2022-07-26T20:08:15.198Z,100209.47
2022-07-26T20:10:41.494Z,100214.75
2022-07-26T20:13:07.971Z,100217.38
2022-07-26T20:15:34.302Z,100216.16
2022-07-26T20:18:00.595Z,100217.59
2022-07-26T20:20:26.917Z,100221.25
2022-07-26T20:22:53.201Z,100224.94
2022-07-26T20:25:21.590Z,100224.84
2022-07-26T20:27:49.752Z,100219.94
2022-07-26T20:30:16.120Z,100229.50
2022-07-26T20:32:42.419Z,100229.28
2022-07-26T20:35:08.726Z,100227.47
2022-07-26T20:37:35.061Z,100237.13
2022-07-26T20:40:01.391Z,100234.28
2022-07-26T20:42:27.701Z,100231.66
2022-07-26T20:44:54.121Z,100229.94
2022-07-26T20:47:20.686Z,100226.00
2022-07-26T20:49:47.008Z,100233.16
2022-07-26T20:52:13.293Z,100236.53
2022-07-26T20:54:39.765Z,100236.97
2022-07-26T20:57:06.051Z,100237.66
2022-07-26T20:59:32.456Z,100235.06
2022-07-26T21:01:58.806Z,100239.88
2022-07-26T21:04:25.187Z,100243.81
2022-07-26T21:06:51.507Z,100250.34
2022-07-26T21:09:18.842Z,100247.63
2022-07-26T21:11:45.125Z,100252.00
2022-07-26T21:14:11.638Z,100250.41
2022-07-26T21:16:38.050Z,100251.06
2022-07-26T21:19:04.414Z,100248.72
2022-07-26T21:21:30.776Z,100253.34
2022-07-26T21:23:57.078Z,100249.94
2022-07-26T21:26:23.405Z,100252.53
2022-07-26T21:28:49.691Z,100265.81
2022-07-26T21:31:15.987Z,100264.00
2022-07-26T21:33:44.546Z,100262.50
2022-07-26T21:36:10.887Z,100260.03
2022-07-26T21:38:37.409Z,100255.56
2022-07-26T21:41:03.692Z,100259.19
2022-07-26T21:43:30.058Z,100259.31
2022-07-26T21:45:56.467Z,100268.63
2022-07-26T21:48:23.089Z,100264.94
2022-07-26T21:50:49.392Z,100272.13
2022-07-26T21:53:15.700Z,100267.34
2022-07-26T21:55:41.998Z,100264.69
2022-07-26T21:58:08.333Z,100267.44
2022-07-26T22:00:36.732Z,100266.09
2022-07-26T22:03:03.020Z,100276.44
2022-07-26T22:05:35.054Z,100271.63
2022-07-26T22:08:01.372Z,100273.28
2022-07-26T22:10:27.676Z,100272.47
2022-07-26T22:12:53.979Z,100277.16
2022-07-26T22:15:20.280Z,100280.00
2022-07-26T22:17:46.570Z,100271.25
2022-07-26T22:20:12.912Z,100273.53
2022-07-26T22:22:39.246Z,100282.00
2022-07-26T22:25:05.572Z,100282.66
2022-07-26T22:27:31.874Z,100284.50
2022-07-26T22:29:58.167Z,100280.19
2022-07-26T22:32:24.472Z,100289.34
2022-07-26T22:34:50.776Z,100283.22
2022-07-26T22:37:17.101Z,100283.84
2022-07-26T22:39:43.438Z,100279.09
2022-07-26T22:42:16.935Z,100276.59
2022-07-26T22:44:43.296Z,100274.06
2022-07-26T22:47:09.600Z,100278.63
2022-07-26T22:49:36.013Z,100275.66
2022-07-26T22:52:02.419Z,100279.75
2022-07-26T22:54:28.699Z,100280.84
2022-07-26T22:56:55.010Z,100270.56
2022-07-26T22:59:22.507Z,100280.13
2022-07-26T23:01:48.836Z,100274.16
2022-07-26T23:04:15.220Z,100276.59
2022-07-26T23:06:42.528Z,100275.91
2022-07-26T23:09:11.137Z,100270.34
2022-07-26T23:11:38.062Z,100286.72
2022-07-26T23:14:04.424Z,100277.28
2022-07-26T23:16:30.776Z,100280.41
2022-07-26T23:18:57.120Z,100278.66
2022-07-26T23:21:23.436Z,100278.34
2022-07-26T23:23:49.733Z,100283.75
2022-07-26T23:26:16.051Z,100288.34
2022-07-26T23:28:42.573Z,100290.22
2022-07-26T23:31:10.387Z,100300.94
2022-07-26T23:33:52.204Z,100297.22
2022-07-26T23:36:20.644Z,100292.00
2022-07-26T23:38:47.039Z,100292.19
2022-07-26T23:41:13.477Z,100289.00
2022-07-26T23:43:39.788Z,100292.28
2022-07-26T23:46:06.070Z,100288.88
2022-07-26T23:48:32.428Z,100298.94
2022-07-26T23:50:58.784Z,100293.63
2022-07-26T23:53:26.739Z,100291.84
2022-07-26T23:55:53.557Z,100287.50
2022-07-26T23:58:19.847Z,100289.22
